createdAt,value
2022-11-17T00:02:05.946Z,11.27
2022-11-17T00:04:32.431Z,11.17
2022-11-17T00:06:59.500Z,11.19
2022-11-17T00:09:25.910Z,11.26
2022-11-17T00:11:52.635Z,11.16
2022-11-17T00:14:20.226Z,11.18
2022-11-17T00:16:47.812Z,11.16
2022-11-17T00:19:14.210Z,11.20
2022-11-17T00:21:40.624Z,11.11
2022-11-17T00:24:07.023Z,11.11
2022-11-17T00:26:35.195Z,11.11
2022-11-17T00:29:01.606Z,11.18
2022-11-17T00:31:27.987Z,11.25
2022-11-17T00:33:54.375Z,11.30
2022-11-17T00:36:22.542Z,11.30
2022-11-17T00:38:49.137Z,11.33
2022-11-17T00:41:15.533Z,11.36
2022-11-17T00:43:42.321Z,11.46
2022-11-17T00:46:08.739Z,11.50
2022-11-17T00:48:35.499Z,11.52
2022-11-17T00:51:02.098Z,11.55
2022-11-17T00:53:28.686Z,11.58
2022-11-17T00:55:55.082Z,11.56
2022-11-17T00:58:21.875Z,11.58
2022-11-17T01:00:48.467Z,11.58
2022-11-17T01:03:15.048Z,11.58
2022-11-17T01:05:43.641Z,11.58
2022-11-17T01:08:11.233Z,11.63
2022-11-17T01:10:37.833Z,11.69
2022-11-17T01:13:04.472Z,11.68
2022-11-17T01:15:30.914Z,11.72
2022-11-17T01:17:57.354Z,11.73
2022-11-17T01:20:23.760Z,11.57
2022-11-17T01:22:50.768Z,11.42
2022-11-17T01:25:17.350Z,11.30
2022-11-17T01:27:43.945Z,11.15
2022-11-17T01:30:10.366Z,11.02
2022-11-17T01:32:36.781Z,10.92
2022-11-17T01:35:03.161Z,10.88
2022-11-17T01:37:29.566Z,10.86
2022-11-17T01:39:55.976Z,10.78
2022-11-17T01:42:22.401Z,10.72
2022-11-17T01:44:48.791Z,10.67
2022-11-17T01:47:15.215Z,10.65
2022-11-17T01:49:41.639Z,10.59
2022-11-17T01:52:08.042Z,10.50
2022-11-17T01:54:34.437Z,10.48
2022-11-17T01:57:00.839Z,10.50
2022-11-17T01:59:27.245Z,10.50
2022-11-17T02:01:53.755Z,10.48
2022-11-17T02:04:20.789Z,10.43
2022-11-17T02:06:47.206Z,10.54
2022-11-17T02:09:14.965Z,10.37
2022-11-17T02:11:41.610Z,10.30
2022-11-17T02:14:08.219Z,10.22
2022-11-17T02:16:34.637Z,10.12
2022-11-17T02:19:01.047Z,10.09
2022-11-17T02:21:27.670Z,10.09
2022-11-17T02:23:54.111Z,10.05
2022-11-17T02:26:20.572Z,10.12
2022-11-17T02:28:46.980Z,10.16
2022-11-17T02:31:13.416Z,10.16
2022-11-17T02:33:39.849Z,10.16
2022-11-17T02:36:06.282Z,10.13
2022-11-17T02:38:33.089Z,10.15
2022-11-17T02:40:59.737Z,10.17
2022-11-17T02:43:26.160Z,10.51
2022-11-17T02:45:52.538Z,10.36
2022-11-17T02:48:18.938Z,10.20
2022-11-17T02:50:45.373Z,10.32
2022-11-17T02:53:11.769Z,10.25
2022-11-17T02:55:38.202Z,10.38
2022-11-17T02:58:04.641Z,10.42
2022-11-17T03:00:31.055Z,10.37
2022-11-17T03:02:58.036Z,10.42
2022-11-17T03:05:24.463Z,10.49
2022-11-17T03:07:50.899Z,10.53
2022-11-17T03:10:17.322Z,10.60
2022-11-17T03:12:43.724Z,10.53
2022-11-17T03:15:10.147Z,10.67
2022-11-17T03:17:37.658Z,10.97
2022-11-17T03:20:04.103Z,10.88
2022-11-17T03:22:30.539Z,10.98
2022-11-17T03:24:56.971Z,10.81
2022-11-17T03:27:23.401Z,10.79
2022-11-17T03:29:49.851Z,10.77
2022-11-17T03:32:16.254Z,10.75
2022-11-17T03:34:42.752Z,10.77
2022-11-17T03:37:09.183Z,10.82
2022-11-17T03:39:35.576Z,10.90
2022-11-17T03:42:01.969Z,10.90
2022-11-17T03:44:28.418Z,10.90
2022-11-17T03:46:54.834Z,10.91
2022-11-17T03:49:22.279Z,10.97
2022-11-17T03:51:49.883Z,11.04
2022-11-17T03:54:16.470Z,11.04
2022-11-17T03:56:42.903Z,11.11
2022-11-17T03:59:09.652Z,11.09
2022-11-17T04:01:36.289Z,11.16
2022-11-17T04:04:03.844Z,11.22
2022-11-17T04:06:30.303Z,11.35
2022-11-17T04:08:56.724Z,11.36
2022-11-17T04:11:23.103Z,11.43
2022-11-17T04:13:49.554Z,11.44
2022-11-17T04:16:15.950Z,11.41
2022-11-17T04:18:42.364Z,11.44
2022-11-17T04:21:08.789Z,11.48
2022-11-17T04:23:35.405Z,11.54
2022-11-17T04:26:02.114Z,11.51
2022-11-17T04:28:28.542Z,11.45
2022-11-17T04:30:55.318Z,11.47
2022-11-17T04:33:21.903Z,11.47
2022-11-17T04:35:48.504Z,11.48
2022-11-17T04:38:14.906Z,11.53
2022-11-17T04:40:41.661Z,11.62
2022-11-17T04:43:08.067Z,11.53
2022-11-17T04:45:34.497Z,11.59
2022-11-17T04:48:00.884Z,11.47
2022-11-17T04:50:27.281Z,11.45
2022-11-17T04:52:53.716Z,11.44
2022-11-17T04:55:20.087Z,11.44
2022-11-17T04:57:46.504Z,11.31
2022-11-17T05:00:12.904Z,11.23
2022-11-17T05:02:39.298Z,11.26
2022-11-17T05:05:05.773Z,11.29
2022-11-17T05:07:32.256Z,11.25
2022-11-17T05:09:58.659Z,11.34
2022-11-17T05:12:25.089Z,11.43
2022-11-17T05:14:51.481Z,11.34
2022-11-17T05:17:17.870Z,11.50
2022-11-17T05:19:44.405Z,11.48
2022-11-17T05:22:11.712Z,11.51
2022-11-17T05:24:38.299Z,11.52
2022-11-17T05:27:05.162Z,11.68
2022-11-17T05:29:32.491Z,11.58
2022-11-17T05:31:59.048Z,11.65
2022-11-17T05:34:26.645Z,11.66
2022-11-17T05:36:53.070Z,12.02
2022-11-17T05:39:19.494Z,11.94
2022-11-17T05:41:45.913Z,11.98
2022-11-17T05:44:12.419Z,12.31
2022-11-17T05:46:40.583Z,12.09
2022-11-17T05:49:07.021Z,12.05
2022-11-17T05:51:33.444Z,12.03
2022-11-17T05:53:59.905Z,12.04
2022-11-17T05:56:26.322Z,12.15
2022-11-17T05:58:52.749Z,12.14
2022-11-17T06:01:20.115Z,12.28
2022-11-17T06:03:46.551Z,12.21
2022-11-17T06:06:12.993Z,12.22
2022-11-17T06:08:39.449Z,12.22
2022-11-17T06:11:06.515Z,12.32
2022-11-17T06:13:34.480Z,12.27
2022-11-17T06:16:01.696Z,12.35
2022-11-17T06:18:29.365Z,12.25
2022-11-17T06:20:56.872Z,12.27
2022-11-17T06:23:23.480Z,12.48
2022-11-17T06:25:50.056Z,12.37
2022-11-17T06:28:16.658Z,12.38
2022-11-17T06:30:44.249Z,12.32
2022-11-17T06:33:10.843Z,12.31
2022-11-17T06:35:38.428Z,12.44
2022-11-17T06:38:04.845Z,12.57
2022-11-17T06:40:31.600Z,12.41
2022-11-17T06:42:58.189Z,12.37
2022-11-17T06:45:24.790Z,12.49
2022-11-17T06:47:52.361Z,12.69
2022-11-17T06:50:18.795Z,12.59
2022-11-17T06:52:45.211Z,12.34
2022-11-17T06:55:11.741Z,12.35
2022-11-17T06:57:39.763Z,12.18
2022-11-17T07:00:07.327Z,12.12
2022-11-17T07:02:35.927Z,12.14
2022-11-17T07:05:02.540Z,12.22
2022-11-17T07:07:32.264Z,12.07
2022-11-17T07:09:59.726Z,12.07
2022-11-17T07:12:26.335Z,12.04
2022-11-17T07:14:52.925Z,12.27
2022-11-17T07:17:19.343Z,12.17
2022-11-17T07:19:47.122Z,12.22
2022-11-17T07:22:13.574Z,12.00
2022-11-17T07:24:41.294Z,12.12
2022-11-17T07:27:07.772Z,12.14
2022-11-17T07:29:34.213Z,12.14
2022-11-17T07:32:00.657Z,12.01
2022-11-17T07:34:27.128Z,12.01
2022-11-17T07:36:53.639Z,12.02
2022-11-17T07:39:21.989Z,12.00
2022-11-17T07:41:48.621Z,12.40
2022-11-17T07:44:15.080Z,12.37
2022-11-17T07:46:41.661Z,12.42
2022-11-17T07:49:09.208Z,12.25
2022-11-17T07:51:35.703Z,12.31
2022-11-17T07:54:02.193Z,12.42
2022-11-17T07:56:28.656Z,12.26
2022-11-17T07:58:55.140Z,12.35
2022-11-17T08:01:22.240Z,12.41
2022-11-17T08:03:49.844Z,12.44
2022-11-17T08:06:17.388Z,12.62
2022-11-17T08:08:46.151Z,12.91
2022-11-17T08:11:15.147Z,13.13
2022-11-17T08:13:42.156Z,13.04
2022-11-17T08:16:09.748Z,13.14
2022-11-17T08:18:37.617Z,13.32
2022-11-17T08:21:04.966Z,13.34
2022-11-17T08:23:32.582Z,13.41
2022-11-17T08:26:00.159Z,13.40
2022-11-17T08:28:27.726Z,13.39
2022-11-17T08:30:55.343Z,13.28
2022-11-17T08:33:24.128Z,13.30
2022-11-17T08:35:51.533Z,13.24
2022-11-17T08:38:19.120Z,13.19
2022-11-17T08:40:46.707Z,13.13
2022-11-17T08:43:15.305Z,13.06
2022-11-17T08:45:43.899Z,13.05
2022-11-17T08:48:11.471Z,13.05
2022-11-17T08:50:38.592Z,13.05
2022-11-17T08:53:05.198Z,13.06
2022-11-17T08:55:35.628Z,13.12
2022-11-17T08:58:06.901Z,13.04
2022-11-17T09:00:35.534Z,13.07
2022-11-17T09:03:04.064Z,13.09
2022-11-17T09:05:32.736Z,13.10
2022-11-17T09:08:22.327Z,13.13
2022-11-17T09:10:48.016Z,13.17
2022-11-17T09:13:18.868Z,13.23
2022-11-17T09:15:47.207Z,13.26
2022-11-17T09:18:13.785Z,13.26
2022-11-17T09:20:45.477Z,13.28
2022-11-17T09:23:14.003Z,13.31
2022-11-17T09:25:42.581Z,13.36
2022-11-17T09:28:11.193Z,13.35
2022-11-17T09:30:39.770Z,13.43
2022-11-17T09:33:07.389Z,13.46
2022-11-17T09:35:35.988Z,13.52
2022-11-17T09:38:03.643Z,13.58
2022-11-17T09:40:36.369Z,13.66
2022-11-17T09:43:04.598Z,13.69
2022-11-17T09:45:31.399Z,13.96
2022-11-17T09:48:33.460Z,13.68
2022-11-17T09:50:51.186Z,13.70
2022-11-17T09:53:18.260Z,13.69
2022-11-17T09:55:45.927Z,13.72
2022-11-17T09:58:13.655Z,13.81
2022-11-17T10:00:41.187Z,13.84
2022-11-17T10:03:08.689Z,13.98
2022-11-17T10:05:37.533Z,14.06
2022-11-17T10:08:06.886Z,14.13
2022-11-17T10:10:40.935Z,14.20
2022-11-17T10:13:13.706Z,14.25
2022-11-17T10:15:40.690Z,14.26
2022-11-17T10:18:09.268Z,14.30
2022-11-17T10:20:36.884Z,14.29
2022-11-17T10:23:04.442Z,14.28
2022-11-17T10:25:33.053Z,14.27
2022-11-17T10:28:01.971Z,14.34
2022-11-17T10:30:28.430Z,14.23
2022-11-17T10:32:56.836Z,14.31
2022-11-17T10:35:25.444Z,14.33
2022-11-17T10:37:52.060Z,14.42
2022-11-17T10:40:25.043Z,14.66
2022-11-17T10:42:56.874Z,14.39
2022-11-17T10:45:25.870Z,14.22
2022-11-17T10:47:55.457Z,14.15
2022-11-17T10:50:30.749Z,14.09
2022-11-17T10:52:57.657Z,14.15
2022-11-17T10:55:25.270Z,14.09
2022-11-17T10:57:54.271Z,14.05
2022-11-17T11:00:21.491Z,14.03
2022-11-17T11:02:48.072Z,13.96
2022-11-17T11:05:15.654Z,13.76
2022-11-17T11:07:46.218Z,13.56
2022-11-17T11:10:12.829Z,13.49
2022-11-17T11:12:39.437Z,13.41
2022-11-17T11:15:07.015Z,13.23
2022-11-17T11:17:36.027Z,13.11
2022-11-17T11:20:07.065Z,13.08
2022-11-17T11:22:33.844Z,12.94
2022-11-17T11:25:00.417Z,12.91
2022-11-17T11:27:29.555Z,12.84
2022-11-17T11:29:56.621Z,12.67
2022-11-17T11:32:25.497Z,12.64
2022-11-17T11:34:56.314Z,12.52
2022-11-17T11:37:23.484Z,12.55
2022-11-17T11:39:52.070Z,12.40
2022-11-17T11:42:19.603Z,12.45
2022-11-17T11:44:47.199Z,12.65
2022-11-17T11:47:16.479Z,12.56
2022-11-17T11:49:44.360Z,12.68
2022-11-17T11:52:14.849Z,12.77
2022-11-17T11:54:49.385Z,12.99
2022-11-17T11:57:18.208Z,12.93
2022-11-17T11:59:45.850Z,12.95
2022-11-17T12:02:17.584Z,12.97
2022-11-17T12:04:45.049Z,12.94
2022-11-17T12:07:12.622Z,12.93
2022-11-17T12:09:39.145Z,12.74
2022-11-17T12:12:05.769Z,12.80
2022-11-17T12:14:33.625Z,12.82
2022-11-17T12:17:03.895Z,12.43
2022-11-17T12:22:14.471Z,12.20
2022-11-17T12:24:43.358Z,12.07
2022-11-17T12:27:11.979Z,11.89
2022-11-17T12:29:39.293Z,11.70
2022-11-17T12:32:08.136Z,11.50
2022-11-17T12:34:35.019Z,11.47
2022-11-17T12:37:03.082Z,11.47
2022-11-17T12:39:30.695Z,11.31
2022-11-17T12:42:02.324Z,11.63
2022-11-17T12:44:29.118Z,11.41
2022-11-17T12:47:00.409Z,11.36
2022-11-17T12:49:27.113Z,11.18
2022-11-17T12:51:53.737Z,11.12
2022-11-17T12:54:22.754Z,11.04
2022-11-17T12:56:49.925Z,11.09
2022-11-17T12:59:17.744Z,11.21
2022-11-17T13:01:46.271Z,11.30
2022-11-17T13:04:15.541Z,11.43
2022-11-17T13:06:42.248Z,11.46
2022-11-17T13:09:09.902Z,11.64
2022-11-17T13:11:39.415Z,11.60
2022-11-17T13:14:08.132Z,11.56
2022-11-17T13:16:36.719Z,11.60
2022-11-17T13:19:05.311Z,11.64
2022-11-17T13:21:32.923Z,11.74
2022-11-17T13:26:41.385Z,11.88
2022-11-17T13:29:08.815Z,11.95
2022-11-17T13:31:39.447Z,12.14
2022-11-17T13:34:06.965Z,12.28
2022-11-17T13:36:33.565Z,12.29
2022-11-17T13:39:00.270Z,12.36
2022-11-17T13:41:26.723Z,12.41
2022-11-17T13:43:53.201Z,12.44
2022-11-17T13:46:19.711Z,12.52
2022-11-17T13:48:46.107Z,12.52
2022-11-17T13:51:12.680Z,12.52
2022-11-17T13:53:39.174Z,12.52
2022-11-17T13:56:05.592Z,12.54
2022-11-17T13:58:32.032Z,12.57
2022-11-17T14:00:58.551Z,12.50
2022-11-17T14:03:25.063Z,12.49
2022-11-17T14:05:51.447Z,12.46
2022-11-17T14:08:17.873Z,12.44
2022-11-17T14:10:44.322Z,12.50
2022-11-17T14:13:10.748Z,12.52
2022-11-17T14:15:37.211Z,12.52
2022-11-17T14:18:03.632Z,12.53
2022-11-17T14:20:30.059Z,12.65
2022-11-17T14:22:56.469Z,12.67
2022-11-17T14:25:22.898Z,12.83
2022-11-17T14:27:53.196Z,12.78
2022-11-17T14:30:19.803Z,12.83
2022-11-17T14:32:46.234Z,12.90
2022-11-17T14:35:12.667Z,12.91
2022-11-17T14:37:39.117Z,12.87
2022-11-17T14:40:05.560Z,12.77
2022-11-17T14:42:35.992Z,12.78
2022-11-17T14:45:03.031Z,12.85
2022-11-17T14:47:29.509Z,12.69
2022-11-17T14:49:55.918Z,12.83
2022-11-17T14:52:22.330Z,12.71
2022-11-17T14:54:48.736Z,12.62
2022-11-17T14:57:15.137Z,12.48
2022-11-17T14:59:41.529Z,12.40
2022-11-17T15:02:07.966Z,12.23
2022-11-17T15:04:49.912Z,12.21
2022-11-17T15:07:17.395Z,12.12
2022-11-17T15:09:43.904Z,12.12
2022-11-17T15:12:10.342Z,12.09
2022-11-17T15:14:36.835Z,12.07
2022-11-17T15:17:03.280Z,12.05
2022-11-17T15:19:29.680Z,12.13
2022-11-17T15:21:56.111Z,12.19
2022-11-17T15:24:22.568Z,12.24
2022-11-17T15:26:48.979Z,12.32
2022-11-17T15:29:15.581Z,12.27
2022-11-17T15:31:42.221Z,12.33
2022-11-17T15:34:08.652Z,12.36
2022-11-17T15:36:35.074Z,12.37
2022-11-17T15:39:01.539Z,12.41
2022-11-17T15:41:32.595Z,12.45
2022-11-17T15:43:59.477Z,12.44
2022-11-17T15:46:25.940Z,12.50
2022-11-17T15:48:52.518Z,12.54
2022-11-17T15:51:18.996Z,12.56
2022-11-17T15:53:46.059Z,12.59
2022-11-17T15:56:12.479Z,12.70
2022-11-17T15:58:38.912Z,12.70
2022-11-17T16:01:05.402Z,12.71
2022-11-17T16:03:31.865Z,12.68
2022-11-17T16:05:58.290Z,12.64
2022-11-17T16:08:24.703Z,12.64
2022-11-17T16:10:51.166Z,12.69
2022-11-17T16:13:17.647Z,12.67
2022-11-17T16:15:44.126Z,12.69
2022-11-17T16:18:10.550Z,12.77
2022-11-17T16:20:37.076Z,12.79
2022-11-17T16:23:03.523Z,12.76
2022-11-17T16:25:29.959Z,12.86
2022-11-17T16:27:56.433Z,13.05
2022-11-17T16:30:22.833Z,12.94
2022-11-17T16:32:49.266Z,12.88
2022-11-17T16:35:15.730Z,12.92
2022-11-17T16:37:42.142Z,12.90
2022-11-17T16:40:08.598Z,13.03
2022-11-17T16:42:34.998Z,12.95
2022-11-17T16:45:01.440Z,13.00
2022-11-17T16:47:27.838Z,13.07
2022-11-17T16:49:54.257Z,13.07
2022-11-17T16:52:20.674Z,12.99
2022-11-17T16:54:47.236Z,12.98
2022-11-17T16:57:13.671Z,12.99
2022-11-17T16:59:40.085Z,13.01
2022-11-17T17:02:07.593Z,12.96
2022-11-17T17:04:34.066Z,12.96
2022-11-17T17:07:00.617Z,12.86
2022-11-17T17:09:28.172Z,12.93
2022-11-17T17:11:54.818Z,12.97
2022-11-17T17:14:21.291Z,12.65
2022-11-17T17:16:47.687Z,12.74
2022-11-17T17:19:14.393Z,12.52
2022-11-17T17:21:41.139Z,12.13
2022-11-17T17:24:07.603Z,11.73
2022-11-17T17:26:34.061Z,11.36
2022-11-17T17:29:00.496Z,11.07
2022-11-17T17:31:26.922Z,11.26
2022-11-17T17:33:53.359Z,11.13
2022-11-17T17:36:19.776Z,10.85
2022-11-17T17:38:51.653Z,10.71
2022-11-17T17:41:21.320Z,10.76
2022-11-17T17:43:47.744Z,10.54
2022-11-17T17:46:15.764Z,10.34
2022-11-17T17:48:42.422Z,10.10
2022-11-17T17:51:08.852Z,9.97
2022-11-17T17:53:35.268Z,9.93
2022-11-17T17:56:01.798Z,9.78
2022-11-17T17:58:28.231Z,9.66
2022-11-17T18:00:54.641Z,9.47
2022-11-17T18:03:21.111Z,9.63
2022-11-17T18:05:47.549Z,9.45
2022-11-17T18:08:13.945Z,9.43
2022-11-17T18:10:40.396Z,9.45
2022-11-17T18:13:10.605Z,9.41
2022-11-17T18:15:37.424Z,9.33
2022-11-17T18:18:03.893Z,9.27
2022-11-17T18:20:30.305Z,9.13
2022-11-17T18:22:56.705Z,9.22
2022-11-17T18:25:23.145Z,9.32
2022-11-17T18:27:49.579Z,9.43
2022-11-17T18:30:15.998Z,9.52
2022-11-17T18:32:42.422Z,9.56
2022-11-17T18:35:08.850Z,9.44
2022-11-17T18:37:35.293Z,9.52
2022-11-17T18:40:01.738Z,9.58
2022-11-17T18:42:28.159Z,9.65
2022-11-17T18:44:54.600Z,9.74
2022-11-17T18:47:21.003Z,9.81
2022-11-17T18:49:47.409Z,9.88
2022-11-17T18:52:13.842Z,9.94
2022-11-17T18:54:40.272Z,9.99
2022-11-17T18:57:06.685Z,10.07
2022-11-17T18:59:33.109Z,10.14
2022-11-17T19:01:59.513Z,10.16
2022-11-17T19:04:25.945Z,10.20
2022-11-17T19:06:52.403Z,10.23
2022-11-17T19:09:19.174Z,10.24
2022-11-17T19:11:45.862Z,10.28
2022-11-17T19:14:12.289Z,10.31
2022-11-17T19:16:44.121Z,10.35
2022-11-17T19:19:11.460Z,10.37
2022-11-17T19:21:37.864Z,10.38
2022-11-17T19:24:04.298Z,10.39
2022-11-17T19:26:30.735Z,10.39
2022-11-17T19:28:57.154Z,10.40
2022-11-17T19:31:23.601Z,10.42
2022-11-17T19:33:50.075Z,10.38
2022-11-17T19:36:16.558Z,10.38
2022-11-17T19:38:43.019Z,10.37
2022-11-17T19:41:09.444Z,10.32
2022-11-17T19:43:40.302Z,10.33
2022-11-17T19:46:09.980Z,10.32
2022-11-17T19:48:36.416Z,10.31
2022-11-17T19:51:02.860Z,10.27
2022-11-17T19:53:29.270Z,10.27
2022-11-17T19:55:55.717Z,10.28
2022-11-17T19:58:22.110Z,10.33
2022-11-17T20:00:48.641Z,10.42
2022-11-17T20:03:15.159Z,10.28
2022-11-17T20:05:41.569Z,10.16
2022-11-17T20:08:08.015Z,10.30
2022-11-17T20:10:34.519Z,10.04
2022-11-17T20:13:00.993Z,10.07
2022-11-17T20:15:34.466Z,9.95
2022-11-17T20:18:01.290Z,9.99
2022-11-17T20:20:27.782Z,10.02
2022-11-17T20:22:54.222Z,9.99
2022-11-17T20:25:20.633Z,9.98
2022-11-17T20:27:47.037Z,10.03
2022-11-17T20:30:15.382Z,10.08
2022-11-17T20:32:42.017Z,10.08
2022-11-17T20:35:08.480Z,10.14
2022-11-17T20:37:34.901Z,10.10
2022-11-17T20:40:01.354Z,10.16
2022-11-17T20:42:27.869Z,10.15
2022-11-17T20:44:54.314Z,10.17
2022-11-17T20:47:20.709Z,10.24
2022-11-17T20:49:47.118Z,10.20
2022-11-17T20:52:13.724Z,10.27
2022-11-17T20:54:40.206Z,10.25
2022-11-17T20:57:06.631Z,10.25
2022-11-17T20:59:33.055Z,10.23
2022-11-17T21:01:59.504Z,10.26
2022-11-17T21:04:25.913Z,10.24
2022-11-17T21:06:52.392Z,10.25
2022-11-17T21:09:19.114Z,10.25
2022-11-17T21:11:45.755Z,10.21
2022-11-17T21:14:12.175Z,10.20
2022-11-17T21:16:38.598Z,10.20
2022-11-17T21:19:05.003Z,10.19
2022-11-17T21:21:31.441Z,10.19
2022-11-17T21:23:57.838Z,10.21
2022-11-17T21:26:24.242Z,10.22
2022-11-17T21:28:50.771Z,10.16
2022-11-17T21:31:17.185Z,10.17
2022-11-17T21:33:43.586Z,10.13
2022-11-17T21:36:09.988Z,10.15
2022-11-17T21:38:36.421Z,10.15
2022-11-17T21:41:02.855Z,10.14
2022-11-17T21:43:29.349Z,10.11
2022-11-17T21:45:55.789Z,10.13
2022-11-17T21:48:22.247Z,10.11
2022-11-17T21:50:48.674Z,10.11
2022-11-17T21:53:15.094Z,10.09
2022-11-17T21:55:41.536Z,10.11
2022-11-17T21:58:07.956Z,10.11
2022-11-17T22:00:34.430Z,10.10
2022-11-17T22:03:00.894Z,10.10
2022-11-17T22:05:27.356Z,10.09
2022-11-17T22:07:53.891Z,10.11
2022-11-17T22:10:20.308Z,10.14
2022-11-17T22:12:46.714Z,10.11
2022-11-17T22:15:13.174Z,10.11
2022-11-17T22:17:39.581Z,10.09
2022-11-17T22:20:06.003Z,10.09
2022-11-17T22:22:32.444Z,10.03
2022-11-17T22:25:07.297Z,9.99
2022-11-17T22:27:45.249Z,10.08
2022-11-17T22:30:11.675Z,10.02
2022-11-17T22:32:42.467Z,10.00
2022-11-17T22:35:11.638Z,9.72
2022-11-17T22:37:38.211Z,9.57
2022-11-17T22:40:04.634Z,9.71
2022-11-17T22:42:31.094Z,9.61
2022-11-17T22:44:57.533Z,9.18
2022-11-17T22:47:23.943Z,9.00
2022-11-17T22:49:50.364Z,8.87
2022-11-17T22:52:16.784Z,8.78
2022-11-17T22:54:43.229Z,8.78
2022-11-17T22:57:09.734Z,8.84
2022-11-17T22:59:36.148Z,8.73
2022-11-17T23:02:02.547Z,8.88
2022-11-17T23:04:29.017Z,8.73
2022-11-17T23:06:55.496Z,8.56
2022-11-17T23:09:22.004Z,8.40
2022-11-17T23:11:48.473Z,8.17
2022-11-17T23:14:14.930Z,8.14
2022-11-17T23:16:41.496Z,8.08
2022-11-17T23:19:07.899Z,8.12
2022-11-17T23:21:34.307Z,8.17
2022-11-17T23:24:00.777Z,8.24
2022-11-17T23:26:27.254Z,8.38
2022-11-17T23:28:53.749Z,8.39
2022-11-17T23:31:20.192Z,8.46
2022-11-17T23:33:46.667Z,8.41
2022-11-17T23:36:13.143Z,8.38
2022-11-17T23:38:39.551Z,8.41
2022-11-17T23:41:06.040Z,8.35
2022-11-17T23:43:32.477Z,8.36
2022-11-17T23:45:58.908Z,8.40
2022-11-17T23:48:25.314Z,8.39
2022-11-17T23:50:51.792Z,8.40
2022-11-17T23:53:18.235Z,8.57
2022-11-17T23:55:44.677Z,8.52
2022-11-17T23:58:11.105Z,8.55
